Capitol Logistics 947


KIAD
Washington Dulles International Airport
Dulles, Virginia, US
EHAM
Schiphol International Airport
Amsterdam, , NL

Activity Log

Date Flight Route Aircraft Duration
09/21/2020 CPX947 KIAD JCOBY3 SWANN BROSS J42 RBV LLUND BAYYS PUT J42 BOS TUSKY N321A ELSIR 50N050W 53N040W 56N030W 56N020W RESNO NETKI NIBOG REMSI L603 LAMSO LAMS2A EHAM B763 7h 25m
04/04/2020 CPX947 WOOLY1 BROSS J150 OOD J42 DAVYS J191 RBV J222 LAURN J42 BOS J575 TUSKY N377A ALLRY 5150N 5340N 5430N 5420N DOGAL LIFFY UL975 WAL M16 DOLAS L603 ENITO LAMSO LAMS2 B763 7h 42m
03/02/2020 CPX947 WOOLY1 BROSS J150 OOD J42 DAVYS J191 RBV J222 LAURN J42 BOS J575 TUSKY N377A ALLRY 5150N 5340N 5430N 5420N DOGAL LIFFY UL975 WAL M16 DOLAS L603 ENITO LAMSO LAMS2A B763 7h 37m
01/15/2020 CPX947 WOOLY1 BROSS J150 OOD J42 DAVYS J191 RBV J222 LAURN J42 BOS J575 TUSKY N377A ALLRY 5150N 5340N 5430N 5420N DOGAL LIFFY UL975 WAL M16 DOLAS L603 ENITO LAMSO LAMS2A B763 7h 28m
12/13/2019 CPX947 JCOBY3 SWANN BROSS J42 RBV LLUND BAYYS PUT WITCH ALLEX N263A JOOPY NATR BEXET DEVOL RINUS LIFFY UL975 WAL M16 DOLAS L603 LAMSO B763 6h 57m
12/07/2019 CPX947 WOOLY1 BROSS J150 OOD J42 DAVYS J191 RBV J222 LAURN J42 BOS J575 TUSKY N377A ALLRY 5150N 5340N 5430N 5420N DOGAL LIFFY UL975 WAL M16 DOLAS L603 ENITO LAMSO LAMS2A B763 7h 23m
06/20/2019 CPX947 KIAD JCOBY3 AGARD SIE J121 SHLEP ACK TUSKY N145B PORTI NATS MALOT NATS GISTI LIFFY Q37 MALUD UL975 WAL M16 DOLAS L603 LAMSO LAMS2A EHAM B763 8h 07m
05/27/2019 CPX947 JCOBY3 SWANN BROSS J42 RBV LLUND BAYYS PUT WITCH ALLEX N263A JOOPY NATR BEXET DEVOL RINUS LIFFY UL975 WAL M16 DOLAS L603 LAMSO B763 7h 33m
04/30/2019 CPX947 JCOBY3 SWANN BROSS J42 RBV LLUND BAYYS PUT WITCH ALLEX N263A JOOPY NATR BEXET DEVOL RINUS LIFFY UL975 WAL M16 DOLAS L603 LAMSO B763 7h 42m

Route Details

Aircraft Information
Primary: Boeing 767-300BDSF
Backup: Not Available
Route Data
Distance: 3355nm
Sched. Duration: 7h 48m
Avg. Duration: 7h 33m (-15m)
Times Flown: 9
Recm'd Route: JCOBY3 SWANN BROSS J42 RBV LLUND BAYYS PUT WITCH ALLEX N263A JOOPY NATR BEXET DEVOL RINUS LIFFY UL975 WAL M16 DOLAS L603 LAMSO
Planned Altitude: 31,000ft
Origin Wx: KIAD 312052Z 17007KT 10SM OVC046 09/02 A3043 RMK AO2 SLP305 T00940022 56018
Dest. Wx: EHAM 312125Z 24010KT 220V280 9999 FEW047 12/08 Q1012 NOSIG
Notes: SEASONAL FLIGHT

Financial History
Total Freight: 331,814lbs
Average Load: 36,868lbs/flt
Fuel Used: 566,466lbs
Avg. Fuel Used: 62,941lbs/flt
Fuel Expense: $735,106
Avg. Fuel Expense: $81,678
Avg. Fuel Cost: $1.30/lbs
Total Gross Income: $806,953
Pilot Pay: $2,191
Total Expenses: $87,619
Total Revenue: $-33,606
Average Revenue: $89,661.42